Aline, Georgia
Current Conditions -  °F | °C
As of 3:15 PM on Sunday 25 Jan 2015 (Local Time) from KVDI Reporting Station
Clear Clear  
Wind Chill: 16°   Ceiling: Unl
Heat Index: 16°   Visibility: 10mi
Dew Point:   Wind: 13mph
Humidity: 36%   Direction: 230°SW
Pressure: 29.89"   Gusts: 23mph
Location:  32.2572°N, 82.1288°W
Report Text: KVDI 252015Z AUTO 23011G20KT 10SM CLR 16/01 A2989 RMK AO2
Loading
Personal Weather Stations






























Interactive Weather Map New forecast layout! Learn more

10-Day Weather Forecast

Advertisements
Track Severe Weather on mobile